Time;durP1;ratioP1;P1;durP2;ratioP2;P2;SDS_P1;SDS_P2;PMS_P1;PMS_P2;Temp;Humidity;BMP_temperature;BMP_pressure;BME280_temperature;BME280_humidity;BME280_pressure;Samples;Min_cycle;Max_cycle;Signal;HPM_P1;HPM_P2
2021/10/08 00:01:28;;;;;;;3.37;2.73;;;10.90;1.00;;;;;;5093147;28;20229;-75
2021/10/08 00:03:55;;;;;;;3.75;2.28;;;10.90;1.00;;;;;;5092947;28;20210;-75
2021/10/08 00:06:23;;;;;;;6.70;2.60;;;10.90;1.00;;;;;;5092129;28;20206;-75
2021/10/08 00:08:50;;;;;;;4.17;2.40;;;10.90;1.00;;;;;;5092785;28;20217;-75
2021/10/08 00:11:18;;;;;;;4.73;2.60;;;10.90;1.00;;;;;;5091949;28;20284;-75
2021/10/08 00:13:45;;;;;;;5.03;3.07;;;10.80;1.00;;;;;;5092486;28;20555;-75
2021/10/08 00:16:13;;;;;;;6.60;2.67;;;10.80;1.00;;;;;;5091792;28;20209;-75
2021/10/08 00:18:41;;;;;;;4.80;2.63;;;10.80;1.00;;;;;;5092261;28;20665;-75
2021/10/08 00:21:09;;;;;;;3.53;2.67;;;10.70;1.00;;;;;;5092200;28;20229;-74
2021/10/08 00:23:36;;;;;;;5.87;2.37;;;10.80;1.00;;;;;;5091980;28;20209;-75
2021/10/08 00:26:04;;;;;;;7.33;2.80;;;10.70;1.00;;;;;;5091614;28;20707;-75
2021/10/08 00:28:33;;;;;;;3.87;2.07;;;10.70;1.00;;;;;;5091897;28;20216;-78
2021/10/08 00:31:00;;;;;;;3.77;2.40;;;10.70;1.00;;;;;;5092386;28;20723;-76
2021/10/08 00:33:27;;;;;;;4.40;2.17;;;10.70;1.00;;;;;;5092153;28;20798;-77
2021/10/08 00:35:55;;;;;;;5.73;2.73;;;10.60;1.00;;;;;;5092709;28;20270;-77
2021/10/08 00:38:22;;;;;;;8.80;2.80;;;10.60;1.00;;;;;;5091593;28;20573;-77
2021/10/08 00:40:48;;;;;;;5.57;3.23;;;10.60;1.00;;;;;;5091229;28;20650;-77
2021/10/08 00:43:19;;;;;;;6.37;3.30;;;10.60;1.00;;;;;;5091853;28;20201;-77
2021/10/08 00:45:48;;;;;;;3.83;2.90;;;10.50;1.00;;;;;;5091527;28;20237;-78
2021/10/08 00:48:16;;;;;;;6.67;2.50;;;10.50;1.00;;;;;;5091515;28;20209;-78
2021/10/08 00:50:47;;;;;;;6.33;2.83;;;10.50;1.00;;;;;;5091892;28;20591;-78
2021/10/08 00:53:14;;;;;;;6.07;3.00;;;10.50;1.00;;;;;;5091231;28;20262;-78
2021/10/08 00:55:43;;;;;;;7.27;3.17;;;10.50;1.00;;;;;;5091297;28;20267;-78
2021/10/08 00:58:11;;;;;;;5.83;2.50;;;10.40;1.00;;;;;;5091437;28;20227;-77
2021/10/08 01:00:41;;;;;;;5.80;3.30;;;10.50;1.00;;;;;;5091680;28;20316;-77
2021/10/08 01:03:09;;;;;;;6.30;3.90;;;10.40;1.00;;;;;;5091338;28;20206;-78
2021/10/08 01:05:37;;;;;;;5.17;3.80;;;10.40;1.00;;;;;;5091841;28;20349;-78
2021/10/08 01:08:05;;;;;;;4.73;2.93;;;10.40;1.00;;;;;;5091141;28;20270;-78
2021/10/08 01:10:32;;;;;;;4.00;3.63;;;10.40;1.00;;;;;;5091497;28;20249;-77
2021/10/08 01:13:00;;;;;;;4.67;2.87;;;10.40;1.00;;;;;;5091679;28;20286;-78
2021/10/08 01:15:27;;;;;;;6.00;2.70;;;10.40;1.00;;;;;;5091610;28;20258;-77
2021/10/08 01:17:54;;;;;;;4.00;2.40;;;10.40;1.00;;;;;;5091409;28;20278;-77
2021/10/08 01:20:24;;;;;;;3.10;2.67;;;10.30;1.00;;;;;;5090877;28;20251;-78
2021/10/08 01:22:53;;;;;;;4.30;3.20;;;10.30;1.00;;;;;;5091572;28;20201;-74
2021/10/08 01:25:20;;;;;;;5.73;3.07;;;10.30;1.00;;;;;;5090324;28;20237;-75
2021/10/08 01:27:47;;;;;;;7.37;3.00;;;10.30;1.00;;;;;;5091026;28;20255;-76
2021/10/08 01:30:14;;;;;;;3.73;2.47;;;10.30;1.00;;;;;;5090742;28;20213;-76
2021/10/08 01:32:41;;;;;;;5.47;2.67;;;10.20;1.00;;;;;;5090917;28;20213;-76
2021/10/08 01:35:09;;;;;;;4.57;2.50;;;10.20;1.00;;;;;;5090462;28;20205;-76
2021/10/08 01:37:38;;;;;;;4.20;2.87;;;10.20;1.00;;;;;;5091285;28;20251;-75
2021/10/08 01:40:06;;;;;;;5.07;2.50;;;10.30;1.00;;;;;;5090334;28;20582;-75
2021/10/08 01:42:33;;;;;;;5.10;2.83;;;10.30;1.00;;;;;;5090547;28;20236;-75
2021/10/08 01:45:00;;;;;;;4.97;2.30;;;10.20;1.00;;;;;;5091099;28;20205;-76
2021/10/08 01:47:27;;;;;;;4.00;2.57;;;10.00;1.00;;;;;;5090815;28;20730;-75
2021/10/08 01:49:55;;;;;;;4.00;2.60;;;9.90;1.00;;;;;;5091614;28;20201;-74
2021/10/08 01:52:23;;;;;;;6.57;2.20;;;9.80;1.00;;;;;;5090401;28;20217;-76
2021/10/08 01:54:51;;;;;;;5.87;2.37;;;9.90;1.00;;;;;;5090575;28;20212;-77
2021/10/08 01:57:18;;;;;;;5.57;3.00;;;9.80;1.00;;;;;;5089942;28;20251;-73
2021/10/08 01:59:45;;;;;;;2.73;2.53;;;9.90;1.00;;;;;;5090602;28;20198;-73
2021/10/08 02:02:12;;;;;;;5.47;2.43;;;9.90;1.00;;;;;;5090146;28;20708;-73
2021/10/08 02:04:39;;;;;;;3.30;2.20;;;9.90;1.00;;;;;;5090761;28;20251;-75
2021/10/08 02:07:06;;;;;;;3.27;2.10;;;9.90;1.00;;;;;;5090356;28;20210;-76
2021/10/08 02:09:33;;;;;;;4.50;2.77;;;9.80;1.00;;;;;;5090543;28;20198;-75
2021/10/08 02:12:01;;;;;;;7.33;2.70;;;9.70;1.00;;;;;;5090870;28;20266;-75
2021/10/08 02:14:28;;;;;;;2.93;1.87;;;9.80;1.00;;;;;;5090471;28;20278;-76
2021/10/08 02:16:55;;;;;;;2.97;2.23;;;9.80;1.00;;;;;;5090960;28;20256;-76
2021/10/08 02:19:23;;;;;;;3.27;1.80;;;9.90;1.00;;;;;;5090134;28;20212;-77
2021/10/08 02:21:50;;;;;;;8.47;2.10;;;9.90;1.00;;;;;;5090055;28;20233;-78
2021/10/08 02:24:17;;;;;;;4.47;1.60;;;9.80;1.00;;;;;;5090200;28;20231;-76
2021/10/08 02:26:44;;;;;;;2.97;1.87;;;9.80;1.00;;;;;;5081837;28;20259;-76
2021/10/08 02:29:13;;;;;;;4.20;2.33;;;9.80;1.00;;;;;;5089829;28;20205;-76
2021/10/08 02:31:39;;;;;;;3.80;2.47;;;9.70;1.00;;;;;;5090418;28;20251;-76
2021/10/08 02:34:07;;;;;;;4.20;1.77;;;9.60;1.00;;;;;;5089969;28;20201;-76
2021/10/08 02:36:34;;;;;;;3.70;2.07;;;9.50;1.00;;;;;;5090436;28;20250;-75
2021/10/08 02:39:01;;;;;;;5.27;2.27;;;9.40;1.00;;;;;;5090076;28;20253;-76
2021/10/08 02:41:28;;;;;;;2.50;1.60;;;9.40;1.00;;;;;;5090421;28;20278;-76
2021/10/08 02:43:55;;;;;;;6.10;2.43;;;9.40;1.00;;;;;;5090546;28;20209;-74
2021/10/08 02:46:24;;;;;;;4.00;2.00;;;9.30;1.00;;;;;;5089907;28;20202;-75
2021/10/08 02:48:51;;;;;;;3.20;1.40;;;9.30;1.00;;;;;;5090314;28;20202;-76
2021/10/08 02:51:18;;;;;;;3.57;1.97;;;9.20;1.00;;;;;;5089322;28;20224;-76
2021/10/08 02:53:45;;;;;;;4.57;1.37;;;9.30;1.00;;;;;;5090071;28;20205;-74
2021/10/08 02:56:12;;;;;;;5.27;2.93;;;9.40;1.00;;;;;;5089644;28;20239;-74
2021/10/08 02:58:39;;;;;;;3.57;1.57;;;9.40;1.00;;;;;;5090792;28;20205;-76
2021/10/08 03:01:06;;;;;;;4.73;2.27;;;9.30;1.00;;;;;;5089602;28;20229;-75
2021/10/08 03:03:34;;;;;;;2.83;1.50;;;9.30;1.00;;;;;;5089921;28;20213;-74
2021/10/08 03:06:01;;;;;;;2.70;1.87;;;9.20;1.00;;;;;;5089856;28;20210;-72
2021/10/08 03:08:29;;;;;;;4.80;1.23;;;9.20;1.00;;;;;;5090316;28;20578;-72
2021/10/08 03:10:56;;;;;;;3.83;1.43;;;9.10;1.00;;;;;;5094417;28;20210;-73
2021/10/08 03:13:23;;;;;;;3.23;1.50;;;9.20;1.00;;;;;;5093392;28;20236;-72
2021/10/08 03:15:50;;;;;;;3.20;1.40;;;9.30;1.00;;;;;;5093707;28;20212;-72
2021/10/08 03:18:17;;;;;;;2.13;1.73;;;9.30;1.00;;;;;;5093353;28;20232;-74
2021/10/08 03:20:45;;;;;;;3.80;2.13;;;9.20;1.00;;;;;;5093367;28;20684;-72
2021/10/08 03:23:12;;;;;;;3.37;2.40;;;9.30;1.00;;;;;;5092945;28;20209;-73
2021/10/08 03:25:39;;;;;;;3.40;2.30;;;9.40;1.00;;;;;;5093427;28;20205;-74
2021/10/08 03:28:06;;;;;;;3.37;2.17;;;9.40;1.00;;;;;;5093307;28;20210;-74
2021/10/08 03:30:33;;;;;;;3.67;2.43;;;9.40;1.00;;;;;;5093216;28;20212;-73
2021/10/08 03:33:00;;;;;;;3.60;2.03;;;9.40;1.00;;;;;;5093480;28;20209;-75
2021/10/08 03:35:27;;;;;;;4.27;2.10;;;9.30;1.00;;;;;;5093247;28;20205;-75
2021/10/08 03:38:01;;;;;;;1.73;1.47;;;9.20;1.00;;;;;;5093577;28;20645;-74
2021/10/08 03:40:30;;;;;;;2.43;1.57;;;9.10;1.00;;;;;;5093202;28;20201;-74
2021/10/08 03:42:59;;;;;;;2.43;1.60;;;9.00;1.00;;;;;;5093189;28;20354;-75
2021/10/08 03:45:31;;;;;;;3.57;1.77;;;9.10;1.00;;;;;;5093020;28;20592;-74
2021/10/08 03:48:05;;;;;;;4.00;1.80;;;9.10;1.00;;;;;;5093159;28;20205;-75
2021/10/08 03:50:33;;;;;;;5.57;1.87;;;9.00;1.00;;;;;;5092613;28;20249;-76
2021/10/08 03:53:01;;;;;;;2.40;1.50;;;9.00;1.00;;;;;;5092655;28;20681;-76
2021/10/08 03:55:28;;;;;;;2.47;1.63;;;9.00;1.00;;;;;;5093162;28;20254;-75
2021/10/08 03:57:55;;;;;;;4.43;2.30;;;9.10;1.00;;;;;;5092870;28;20258;-75
2021/10/08 04:00:22;;;;;;;3.87;1.90;;;9.10;1.00;;;;;;5092528;28;20205;-77
2021/10/08 04:02:49;;;;;;;4.50;1.57;;;9.10;1.00;;;;;;5092437;28;20233;-77
2021/10/08 04:05:16;;;;;;;3.07;2.20;;;9.10;1.00;;;;;;5092116;28;20254;-76
2021/10/08 04:07:43;;;;;;;6.27;1.60;;;9.10;1.00;;;;;;5092729;28;20201;-77
2021/10/08 04:10:11;;;;;;;2.00;1.50;;;9.00;1.00;;;;;;5092262;28;20205;-77
2021/10/08 04:12:38;;;;;;;3.37;1.53;;;9.00;1.00;;;;;;5093076;28;20259;-77
2021/10/08 04:15:06;;;;;;;2.30;1.77;;;8.90;1.00;;;;;;5092081;28;20205;-77
2021/10/08 04:17:33;;;;;;;1.97;1.40;;;8.90;1.00;;;;;;5092210;28;20209;-78
2021/10/08 04:20:00;;;;;;;1.80;1.43;;;9.00;1.00;;;;;;5092503;28;20197;-75
2021/10/08 04:22:27;;;;;;;3.70;2.07;;;9.10;1.00;;;;;;5092218;28;20778;-75
2021/10/08 04:24:54;;;;;;;3.80;1.73;;;9.10;1.00;;;;;;5092404;28;20212;-75
2021/10/08 04:27:22;;;;;;;1.40;1.20;;;9.10;1.00;;;;;;5091917;28;20259;-75
2021/10/08 04:29:49;;;;;;;2.40;1.73;;;9.10;1.00;;;;;;5092034;28;20214;-73
2021/10/08 04:32:16;;;;;;;5.20;2.07;;;8.90;1.00;;;;;;5091643;28;20676;-73
2021/10/08 04:34:43;;;;;;;2.07;1.50;;;8.80;1.00;;;;;;5092321;28;20235;-73
2021/10/08 04:37:10;;;;;;;3.70;1.53;;;8.70;1.00;;;;;;5091529;28;20274;-72
2021/10/08 04:39:37;;;;;;;4.37;1.93;;;8.80;1.00;;;;;;5092126;28;20319;-73
2021/10/08 04:42:04;;;;;;;4.93;1.90;;;8.80;1.00;;;;;;5091600;28;20790;-72
2021/10/08 04:44:33;;;;;;;2.10;1.90;;;8.80;1.00;;;;;;5091888;28;20204;-76
2021/10/08 04:47:00;;;;;;;1.40;1.10;;;8.70;1.00;;;;;;5092029;28;20227;-82
2021/10/08 04:49:27;;;;;;;6.47;2.13;;;8.80;1.00;;;;;;5092322;28;20202;-76
2021/10/08 04:51:54;;;;;;;3.67;1.97;;;8.80;1.00;;;;;;5092056;28;20338;-79
2021/10/08 04:54:21;;;;;;;3.43;1.97;;;8.60;1.00;;;;;;5091215;28;20259;-82
2021/10/08 04:56:48;;;;;;;3.40;2.03;;;8.70;1.00;;;;;;5091401;28;20197;-80
2021/10/08 04:59:15;;;;;;;3.43;1.50;;;8.80;1.00;;;;;;5091184;28;20263;-74
2021/10/08 05:01:43;;;;;;;4.03;1.60;;;8.70;1.00;;;;;;5091086;28;20702;-82
2021/10/08 05:04:10;;;;;;;2.17;1.27;;;8.80;1.00;;;;;;5091730;28;20274;-80
2021/10/08 05:06:37;;;;;;;4.93;1.90;;;8.80;1.00;;;;;;5091111;28;20201;-79
2021/10/08 05:09:04;;;;;;;1.67;1.33;;;8.90;1.00;;;;;;5091072;28;20595;-79
2021/10/08 05:11:32;;;;;;;3.23;1.60;;;8.90;1.00;;;;;;5090956;28;20251;-79
2021/10/08 05:13:59;;;;;;;3.17;2.30;;;8.80;1.00;;;;;;5091912;28;20258;-79
2021/10/08 05:16:26;;;;;;;3.57;1.60;;;8.70;1.00;;;;;;5091115;28;20205;-78
2021/10/08 05:18:54;;;;;;;3.47;1.60;;;8.60;1.00;;;;;;5086954;28;20733;-79
2021/10/08 05:21:21;;;;;;;3.07;1.53;;;8.60;1.00;;;;;;5090822;28;20693;-77
2021/10/08 05:23:48;;;;;;;1.60;1.37;;;8.60;1.00;;;;;;5083762;28;20234;-79
2021/10/08 05:26:15;;;;;;;2.80;1.50;;;8.70;1.00;;;;;;5082281;28;20266;-79
2021/10/08 05:28:42;;;;;;;3.73;1.80;;;8.60;1.00;;;;;;5082567;28;20258;-78
2021/10/08 05:31:09;;;;;;;3.57;1.57;;;8.50;1.00;;;;;;5090811;28;20213;-79
2021/10/08 05:33:36;;;;;;;3.30;1.40;;;8.50;1.00;;;;;;5090319;28;20209;-79
2021/10/08 05:36:05;;;;;;;3.13;1.77;;;8.60;1.00;;;;;;5090833;28;20250;-77
2021/10/08 05:38:32;;;;;;;2.07;1.40;;;8.70;1.00;;;;;;5091412;28;20213;-74
2021/10/08 05:41:00;;;;;;;4.20;2.17;;;8.70;1.00;;;;;;5090816;28;20750;-78
2021/10/08 05:43:28;;;;;;;1.70;1.60;;;8.60;1.00;;;;;;5091313;28;20582;-78
2021/10/08 05:45:56;;;;;;;1.93;1.73;;;8.60;1.00;;;;;;5087808;28;20206;-73
2021/10/08 05:48:23;;;;;;;2.37;2.00;;;8.60;1.00;;;;;;5070343;28;20627;-75
2021/10/08 05:50:50;;;;;;;3.40;1.93;;;8.60;1.00;;;;;;5085945;28;20209;-80
2021/10/08 05:53:18;;;;;;;2.10;1.60;;;8.50;1.00;;;;;;5090516;28;20205;-76
2021/10/08 05:55:45;;;;;;;3.10;1.80;;;8.60;1.00;;;;;;5091041;28;20265;-74
2021/10/08 05:58:12;;;;;;;2.30;2.03;;;8.50;1.00;;;;;;5068738;28;20205;-71
2021/10/08 06:00:39;;;;;;;4.03;2.10;;;8.50;1.00;;;;;;5082982;28;20270;-79
2021/10/08 06:03:06;;;;;;;5.40;2.30;;;8.50;1.00;;;;;;5084916;28;20237;-73
2021/10/08 06:05:35;;;;;;;5.87;2.27;;;8.40;1.00;;;;;;5090496;28;20629;-77
2021/10/08 06:08:02;;;;;;;2.20;2.00;;;8.40;1.00;;;;;;5090154;28;20255;-74
2021/10/08 06:10:30;;;;;;;3.87;2.80;;;8.40;1.00;;;;;;5090826;28;20730;-75
2021/10/08 06:12:57;;;;;;;4.17;3.07;;;8.30;1.00;;;;;;5090449;28;20201;-74
2021/10/08 06:15:24;;;;;;;3.47;2.73;;;8.40;1.00;;;;;;5089889;28;20680;-79
2021/10/08 06:17:51;;;;;;;4.23;2.37;;;8.50;1.00;;;;;;5089474;28;20247;-75
2021/10/08 06:20:18;;;;;;;2.70;1.73;;;8.60;1.00;;;;;;5061760;28;20629;-76
2021/10/08 06:22:46;;;;;;;7.13;2.20;;;8.70;1.00;;;;;;5090490;28;20265;-79
2021/10/08 06:25:14;;;;;;;4.20;2.07;;;8.70;1.00;;;;;;5089714;28;20209;-79
2021/10/08 06:27:42;;;;;;;3.60;2.20;;;8.70;1.00;;;;;;5090600;28;20202;-78
2021/10/08 06:30:11;;;;;;;8.43;2.23;;;8.70;1.00;;;;;;5089681;28;20266;-75
2021/10/08 06:32:38;;;;;;;4.80;2.10;;;8.80;1.00;;;;;;5090542;28;20201;-78
2021/10/08 06:35:06;;;;;;;6.07;2.00;;;8.80;1.00;;;;;;5090015;28;20201;-79
2021/10/08 06:37:33;;;;;;;2.23;2.03;;;8.70;1.00;;;;;;5089956;28;20202;-75
2021/10/08 06:40:00;;;;;;;3.10;2.07;;;8.90;1.00;;;;;;5090452;28;20564;-75
2021/10/08 06:42:27;;;;;;;2.20;1.83;;;9.00;1.00;;;;;;5090254;28;20240;-79
2021/10/08 06:44:57;;;;;;;4.00;2.27;;;9.10;1.00;;;;;;5089746;28;20262;-79
2021/10/08 06:47:25;;;;;;;3.90;2.30;;;9.00;1.00;;;;;;5084231;28;20262;-79
2021/10/08 06:49:53;;;;;;;3.63;1.67;;;9.00;1.00;;;;;;5094482;28;20205;-76
2021/10/08 06:52:19;;;;;;;5.30;2.77;;;9.00;1.00;;;;;;5093750;28;20217;-76
2021/10/08 06:54:47;;;;;;;2.80;1.93;;;9.00;1.00;;;;;;5094253;28;20201;-76
2021/10/08 06:57:13;;;;;;;6.60;2.23;;;9.10;1.00;;;;;;5093733;28;20255;-76
2021/10/08 06:59:40;;;;;;;3.37;1.73;;;9.10;1.00;;;;;;5078941;28;20690;-77
2021/10/08 07:02:09;;;;;;;2.93;2.17;;;9.20;1.00;;;;;;5072605;28;20666;-72
2021/10/08 07:04:36;;;;;;;6.73;2.63;;;9.30;1.00;;;;;;5076020;28;20209;-75
2021/10/08 07:07:04;;;;;;;4.77;2.50;;;9.30;1.00;;;;;;5075287;28;20241;-77
2021/10/08 07:09:31;;;;;;;5.93;2.30;;;9.40;1.00;;;;;;5073963;28;20727;-73
2021/10/08 07:11:58;;;;;;;4.47;2.33;;;9.50;1.00;;;;;;5080927;28;20345;-76
2021/10/08 07:14:25;;;;;;;3.73;2.80;;;9.60;1.00;;;;;;5086445;28;20243;-76
2021/10/08 07:16:54;;;;;;;5.20;2.67;;;9.70;1.00;;;;;;5089265;28;20274;-73
2021/10/08 07:19:23;;;;;;;7.43;3.03;;;9.70;1.00;;;;;;5085572;28;20298;-77
2021/10/08 07:21:51;;;;;;;5.00;2.77;;;9.80;1.00;;;;;;5080510;28;20680;-75
2021/10/08 07:24:18;;;;;;;4.47;2.77;;;9.90;1.00;;;;;;5085347;28;20738;-76
2021/10/08 07:26:45;;;;;;;6.13;2.87;;;9.90;1.00;;;;;;5084618;28;20209;-77
2021/10/08 07:29:12;;;;;;;5.90;2.97;;;10.10;1.00;;;;;;5085726;28;20213;-77
2021/10/08 07:31:39;;;;;;;4.60;2.53;;;10.20;1.00;;;;;;5081801;28;20251;-77
2021/10/08 07:34:06;;;;;;;5.27;3.17;;;10.30;1.00;;;;;;5085975;28;20202;-77
2021/10/08 07:36:35;;;;;;;4.40;3.00;;;10.30;1.00;;;;;;5078029;28;20259;-79
2021/10/08 07:39:01;;;;;;;4.93;3.47;;;10.50;1.00;;;;;;5072325;28;20206;-72
2021/10/08 07:41:29;;;;;;;5.50;3.33;;;10.60;1.00;;;;;;5075011;28;20214;-73
2021/10/08 07:43:56;;;;;;;9.67;3.37;;;10.80;1.00;;;;;;5075217;28;20275;-76
2021/10/08 07:46:24;;;;;;;6.77;2.77;;;11.00;1.00;;;;;;5060025;28;20257;-73
2021/10/08 07:48:51;;;;;;;5.10;2.47;;;11.00;1.00;;;;;;5074812;28;20202;-75
2021/10/08 07:51:18;;;;;;;5.60;3.20;;;11.10;1.00;;;;;;5075727;28;20260;-72
2021/10/08 07:53:46;;;;;;;6.00;2.80;;;11.30;1.00;;;;;;5079853;28;20202;-77
2021/10/08 07:56:13;;;;;;;20.17;4.77;;;11.40;1.00;;;;;;5081864;28;20247;-73
2021/10/08 07:58:40;;;;;;;5.53;3.83;;;11.50;1.00;;;;;;5082922;28;20690;-71
2021/10/08 08:01:07;;;;;;;2.50;2.30;;;11.50;1.00;;;;;;5081678;28;20206;-73
2021/10/08 08:03:34;;;;;;;10.77;3.07;;;11.60;1.00;;;;;;5084710;28;20229;-75
2021/10/08 08:06:02;;;;;;;3.63;2.80;;;12.30;1.00;;;;;;5079989;28;20210;-72
2021/10/08 08:08:29;;;;;;;5.53;2.90;;;12.10;1.00;;;;;;5086325;28;20212;-76
2021/10/08 08:10:57;;;;;;;4.23;2.53;;;12.10;1.00;;;;;;5080129;28;20202;-76
2021/10/08 08:13:24;;;;;;;6.20;2.73;;;12.10;1.00;;;;;;5084295;28;20206;-72
2021/10/08 08:15:51;;;;;;;4.10;3.70;;;12.10;1.00;;;;;;5081269;28;20210;-74
2021/10/08 08:18:19;;;;;;;3.50;2.13;;;12.10;1.00;;;;;;5082817;28;20296;-71
2021/10/08 08:20:46;;;;;;;5.20;2.10;;;12.00;1.00;;;;;;5083114;28;20198;-72
2021/10/08 08:23:13;;;;;;;14.40;3.10;;;12.10;1.00;;;;;;5080699;28;20662;-71
2021/10/08 08:25:40;;;;;;;2.50;2.17;;;12.60;1.00;;;;;;5084454;28;20278;-77
2021/10/08 08:28:08;;;;;;;8.00;3.17;;;12.60;1.00;;;;;;5079067;28;20264;-74
2021/10/08 08:30:38;;;;;;;2.17;1.97;;;12.90;1.00;;;;;;5078086;28;20198;-72
2021/10/08 08:33:05;;;;;;;3.35;2.00;;;12.80;1.00;;;;;;5071902;28;20739;-76
2021/10/08 08:35:32;;;;;;;4.67;2.80;;;12.80;1.00;;;;;;5091082;28;20247;-72
2021/10/08 08:38:00;;;;;;;2.53;1.83;;;12.90;1.00;;;;;;5092265;28;20236;-72
2021/10/08 08:40:29;;;;;;;4.63;2.30;;;12.80;1.00;;;;;;5091905;28;20704;-74
2021/10/08 08:42:57;;;;;;;4.80;2.23;;;13.00;1.00;;;;;;5092011;28;20229;-75
2021/10/08 08:45:25;;;;;;;4.80;2.90;;;13.10;1.00;;;;;;5091812;28;20640;-72
2021/10/08 08:48:00;;;;;;;4.87;2.20;;;13.20;1.00;;;;;;5091623;28;20669;-71
2021/10/08 08:50:27;;;;;;;3.50;2.60;;;13.20;1.00;;;;;;5092015;28;20258;-72
2021/10/08 08:52:54;;;;;;;4.23;2.67;;;13.20;1.00;;;;;;5091768;28;20213;-77
2021/10/08 08:55:22;;;;;;;2.05;1.70;;;13.40;1.00;;;;;;5091320;28;20338;-76
2021/10/08 08:57:49;;;;;;;7.40;2.23;;;13.40;1.00;;;;;;5091758;28;20282;-74
2021/10/08 09:00:19;;;;;;;3.65;1.35;;;13.40;1.00;;;;;;5091501;28;20201;-72
2021/10/08 09:02:54;;;;;;;2.38;1.48;;;13.40;1.00;;;;;;5091448;28;20294;-75
2021/10/08 09:05:23;;;;;;;2.67;1.98;;;13.60;1.00;;;;;;5091384;28;20236;-74
2021/10/08 09:07:50;;;;;;;5.20;1.40;;;13.70;1.00;;;;;;5091076;28;20693;-75
2021/10/08 09:10:18;;;;;;;3.10;2.05;;;13.80;99.90;;;;;;5091132;28;20680;-72
2021/10/08 09:12:48;;;;;;;3.15;1.50;;;13.90;99.90;;;;;;5091453;28;20665;-72
2021/10/08 09:15:16;;;;;;;3.13;1.58;;;14.10;99.90;;;;;;5090729;28;20665;-75
2021/10/08 09:17:43;;;;;;;3.78;1.38;;;14.20;99.90;;;;;;5091325;28;20742;-77
2021/10/08 09:20:13;;;;;;;3.30;1.60;;;14.40;99.90;;;;;;5090622;28;20251;-72
2021/10/08 09:22:53;;;;;;;2.25;1.65;;;14.60;99.90;;;;;;5091425;28;20250;-72
2021/10/08 09:25:24;;;;;;;1.40;1.05;;;14.80;99.90;;;;;;5090858;28;20271;-75
2021/10/08 09:27:53;;;;;;;4.50;1.95;;;14.90;99.90;;;;;;5091390;28;20209;-75
2021/10/08 09:30:24;;;;;;;4.18;1.80;;;14.90;99.90;;;;;;5090752;28;20205;-77
2021/10/08 09:32:53;;;;;;;2.58;1.35;;;14.90;99.90;;;;;;5090994;28;20212;-76
2021/10/08 09:35:24;;;;;;;1.95;1.30;;;14.90;99.90;;;;;;5086943;28;20815;-77
2021/10/08 09:37:56;;;;;;;1.30;1.10;;;15.10;99.90;;;;;;5063694;28;20210;-77
2021/10/08 09:40:29;;;;;;;1.95;1.30;;;15.10;99.90;;;;;;5090571;28;20622;-72
2021/10/08 09:42:58;;;;;;;5.35;1.73;;;15.30;99.90;;;;;;5091126;28;20220;-72
2021/10/08 09:45:39;;;;;;;2.30;1.35;;;15.60;99.90;;;;;;5091145;28;20282;-75
2021/10/08 09:48:06;;;;;;;3.17;0.90;;;16.40;99.90;;;;;;5090598;28;20209;-74
2021/10/08 09:50:35;;;;;;;1.67;1.17;;;16.70;99.90;;;;;;5090849;28;20259;-75
2021/10/08 09:53:13;;;;;;;1.50;1.10;;;20.00;99.90;;;;;;5089928;28;20669;-75
2021/10/08 09:55:42;;;;;;;2.80;1.17;;;18.60;99.90;;;;;;5090721;28;20213;-77
2021/10/08 09:58:10;;;;;;;2.83;1.30;;;18.00;99.90;;;;;;5090107;28;20215;-73
2021/10/08 10:00:44;;;;;;;2.75;1.60;;;17.90;99.90;;;;;;5091059;28;20206;-77
2021/10/08 10:03:12;;;;;;;2.47;0.95;;;17.80;99.90;;;;;;5090071;28;20247;-73
2021/10/08 10:05:40;;;;;;;2.15;1.63;;;17.50;99.90;;;;;;5090772;28;20201;-77
2021/10/08 10:08:08;;;;;;;2.78;1.40;;;17.90;99.90;;;;;;5090314;28;20197;-78
2021/10/08 10:10:37;;;;;;;2.83;0.93;;;17.70;99.90;;;;;;5090939;28;20259;-75
2021/10/08 10:13:06;;;;;;;2.63;1.58;;;17.90;99.90;;;;;;5090342;28;20205;-73
2021/10/08 10:15:35;;;;;;;2.95;1.13;;;19.60;99.90;;;;;;5090715;28;20250;-73
2021/10/08 10:18:04;;;;;;;1.88;1.00;;;18.00;99.90;;;;;;5089934;28;20209;-73
2021/10/08 10:20:34;;;;;;;2.92;1.25;;;17.50;99.90;;;;;;5094219;28;20201;-74
2021/10/08 10:23:06;;;;;;;2.15;1.20;;;17.30;99.90;;;;;;5094578;28;20229;-73
2021/10/08 10:25:34;;;;;;;1.33;1.10;;;17.10;99.90;;;;;;5094864;28;20280;-74
2021/10/08 10:28:02;;;;;;;1.95;1.10;;;17.00;99.90;;;;;;5094305;28;20209;-74
2021/10/08 10:30:29;;;;;;;3.40;1.35;;;16.40;99.90;;;;;;5094615;28;20737;-75
2021/10/08 10:32:57;;;;;;;2.40;1.35;;;16.60;99.90;;;;;;5073141;28;20211;-73
2021/10/08 10:35:48;;;;;;;1.17;0.80;;;16.80;99.90;;;;;;5091343;28;20270;-73
2021/10/08 10:38:28;;;;;;;1.33;0.85;;;17.20;99.90;;;;;;5094373;28;20209;-74
2021/10/08 10:41:20;;;;;;;1.88;0.98;;;17.20;99.90;;;;;;5094525;28;20204;-72
2021/10/08 10:43:50;;;;;;;3.13;1.20;;;17.30;99.90;;;;;;5094597;28;20240;-74
2021/10/08 10:46:25;;;;;;;2.38;0.82;;;17.20;99.90;;;;;;5094038;28;20288;-72
2021/10/08 10:49:42;;;;;;;3.75;1.23;;;17.40;99.90;;;;;;5094284;28;20215;-72
2021/10/08 10:52:17;;;;;;;0.95;0.60;;;17.50;99.90;;;;;;5094148;28;20213;-73
2021/10/08 10:55:11;;;;;;;1.05;0.95;;;17.50;99.90;;;;;;5094063;28;20201;-72
2021/10/08 10:57:58;;;;;;;0.60;0.60;;;17.40;99.90;;;;;;5094055;28;20213;-79
2021/10/08 11:00:29;;;;;;;2.03;0.70;;;17.40;99.90;;;;;;5094093;28;20612;-73
2021/10/08 11:03:17;;;;;;;1.65;0.80;;;17.40;99.90;;;;;;5094136;28;20201;-73
2021/10/08 11:06:24;;;;;;;2.63;0.80;;;17.30;99.90;;;;;;5079432;28;20708;-78
2021/10/08 11:09:20;;;;;;;2.90;0.85;;;17.30;99.90;;;;;;5066308;28;20206;-72
2021/10/08 11:12:28;;;;;;;1.15;0.70;;;17.40;99.90;;;;;;5079636;28;20202;-73
2021/10/08 11:15:32;;;;;;;1.17;0.75;;;17.60;99.90;;;;;;5079835;28;20205;-73
2021/10/08 11:18:00;;;;;;;2.72;1.20;;;17.60;99.90;;;;;;5077199;28;20213;-71
2021/10/08 11:20:49;;;;;;;2.13;1.25;;;17.70;99.90;;;;;;5078243;28;20210;-72
2021/10/08 11:23:27;;;;;;;2.78;0.95;;;17.70;99.90;;;;;;5076392;28;20653;-72
2021/10/08 11:25:56;;;;;;;3.92;1.17;;;17.20;99.90;;;;;;5076380;28;20198;-72
2021/10/08 11:28:29;;;;;;;1.48;0.90;;;17.50;99.90;;;;;;5078139;28;20666;-72
2021/10/08 11:30:57;;;;;;;1.55;0.93;;;17.90;99.90;;;;;;5075320;28;20199;-72
2021/10/08 11:33:39;;;;;;;2.03;1.35;;;18.20;99.90;;;;;;5077462;28;20264;-79
2021/10/08 11:36:18;;;;;;;2.90;1.08;;;18.30;99.90;;;;;;5064991;28;20210;-76
2021/10/08 11:38:46;;;;;;;4.20;1.35;;;18.40;99.90;;;;;;5081182;28;20280;-73
2021/10/08 11:41:21;;;;;;;1.15;1.05;;;18.30;99.90;;;;;;5071814;28;20209;-72
2021/10/08 11:44:06;;;;;;;2.72;0.90;;;18.20;99.90;;;;;;5074448;28;20228;-73
2021/10/08 11:46:40;;;;;;;2.10;1.02;;;18.30;99.90;;;;;;5074146;28;20243;-71
2021/10/08 11:49:25;;;;;;;2.90;1.45;;;18.40;99.90;;;;;;5066772;28;20665;-72
2021/10/08 11:51:57;;;;;;;1.35;0.88;;;18.50;99.90;;;;;;5069313;28;20689;-75
2021/10/08 11:54:24;;;;;;;1.10;0.88;;;18.60;99.90;;;;;;5074520;28;20238;-75
2021/10/08 11:57:01;;;;;;;3.10;1.30;;;18.80;99.90;;;;;;5088834;28;20727;-75
2021/10/08 11:59:30;;;;;;;1.38;0.90;;;18.80;99.90;;;;;;5088309;28;20629;-75
2021/10/08 12:02:12;;;;;;;6.70;2.67;;;18.70;99.90;;;;;;5091534;28;20251;-72
2021/10/08 12:04:39;;;;;;;6.05;2.90;;;18.00;99.90;;;;;;5089286;28;20221;-78
2021/10/08 12:07:11;;;;;;;8.48;3.40;;;17.60;99.90;;;;;;5090118;28;20202;-71
2021/10/08 12:09:38;;;;;;;2.20;2.00;;;17.60;99.90;;;;;;5081857;28;20253;-72
2021/10/08 12:12:10;;;;;;;1.30;0.88;;;18.00;99.90;;;;;;5087082;28;20262;-75
2021/10/08 12:14:45;;;;;;;4.53;2.72;;;18.30;99.90;;;;;;5084369;28;20264;-72
2021/10/08 12:17:12;;;;;;;2.60;1.70;;;18.60;99.90;;;;;;5088644;28;20201;-76
2021/10/08 12:19:39;;;;;;;2.42;1.55;;;18.90;99.90;;;;;;5085334;28;20256;-76
2021/10/08 12:22:11;;;;;;;2.78;0.95;;;19.30;99.90;;;;;;5088182;28;20210;-75
2021/10/08 12:24:38;;;;;;;0.88;0.70;;;19.30;99.90;;;;;;5083325;28;20256;-80
2021/10/08 12:27:06;;;;;;;2.25;1.00;;;19.20;99.90;;;;;;5086559;28;20205;-77
2021/10/08 12:29:41;;;;;;;4.35;1.00;;;19.10;99.90;;;;;;5083095;28;20198;-71
2021/10/08 12:32:13;;;;;;;2.25;1.40;;;18.90;99.90;;;;;;5085006;28;20292;-72
2021/10/08 12:34:44;;;;;;;2.45;1.33;;;18.20;99.90;;;;;;5085548;28;20591;-76
2021/10/08 12:37:14;;;;;;;0.90;0.60;;;18.00;99.90;;;;;;5090214;28;20634;-72
2021/10/08 12:39:58;;;;;;;1.40;1.10;;;17.80;99.90;;;;;;5090762;28;20282;-76
2021/10/08 12:42:27;;;;;;;1.73;1.02;;;18.00;99.90;;;;;;5087961;28;20232;-76
2021/10/08 12:44:58;;;;;;;2.33;1.00;;;18.10;99.90;;;;;;5089996;28;20233;-73
2021/10/08 12:47:36;;;;;;;1.23;0.90;;;18.30;99.90;;;;;;5070652;28;20209;-71
2021/10/08 12:50:06;;;;;;;1.20;0.80;;;18.50;99.90;;;;;;5071227;28;20202;-71
2021/10/08 12:52:36;;;;;;;1.35;0.70;;;18.80;99.90;;;;;;5072779;28;20260;-75
2021/10/08 12:55:06;;;;;;;0.77;0.70;;;19.30;99.90;;;;;;5073430;28;20202;-73
2021/10/08 12:57:34;;;;;;;1.30;0.90;;;19.50;99.90;;;;;;5073469;28;20256;-75
2021/10/08 13:00:01;;;;;;;2.88;1.73;;;19.30;99.90;;;;;;5073195;28;20327;-74
2021/10/08 13:02:45;;;;;;;1.65;1.30;;;19.40;99.90;;;;;;5072389;28;20203;-72
2021/10/08 13:05:13;;;;;;;2.90;1.27;;;19.40;99.90;;;;;;5070958;28;20689;-77
2021/10/08 13:07:41;;;;;;;2.50;0.98;;;19.40;99.90;;;;;;5071205;28;20723;-74
2021/10/08 13:10:13;;;;;;;2.05;0.90;;;19.20;99.90;;;;;;5070858;28;20206;-80